createdAt,value
2018-11-22T00:03:04.237Z,2.99
2018-11-22T00:05:52.915Z,3.82
2018-11-22T00:08:41.424Z,2.55
2018-11-22T00:11:29.926Z,2.23
2018-11-22T00:14:37.709Z,2.21
2018-11-22T00:17:26.606Z,2.19
2018-11-22T00:20:15.316Z,2.31
2018-11-22T00:23:04.147Z,2.32
2018-11-22T00:25:52.959Z,2.20
2018-11-22T00:28:41.527Z,2.87
2018-11-22T00:31:30.057Z,2.68
2018-11-22T00:37:13.258Z,2.51
2018-11-22T00:40:01.838Z,2.54
2018-11-22T00:42:50.686Z,2.46
2018-11-22T00:45:39.530Z,2.39
2018-11-22T00:48:28.005Z,2.38
2018-11-22T00:51:16.500Z,2.53
2018-11-22T00:54:05.047Z,2.49
2018-11-22T00:56:53.768Z,2.54
2018-11-22T01:02:37.297Z,2.49
2018-11-22T01:05:26.701Z,3.08
2018-11-22T01:08:15.206Z,2.59
2018-11-22T01:11:03.979Z,2.58
2018-11-22T01:13:52.489Z,3.27
2018-11-22T01:16:40.953Z,3.09
2018-11-22T01:19:29.441Z,2.50
2018-11-22T01:22:18.171Z,2.59
2018-11-22T01:25:07.964Z,2.47
2018-11-22T01:27:56.471Z,2.55
2018-11-22T01:30:44.954Z,2.90
2018-11-22T01:33:33.481Z,3.54
2018-11-22T01:36:22.259Z,2.55
2018-11-22T01:39:11.767Z,2.46
2018-11-22T01:42:00.300Z,2.82
2018-11-22T01:44:49.338Z,2.54
2018-11-22T01:47:38.240Z,2.54
2018-11-22T01:50:26.772Z,3.06
2018-11-22T01:56:08.962Z,3.05
2018-11-22T01:58:57.728Z,2.78
2018-11-22T02:01:46.212Z,2.91
2018-11-22T02:04:34.809Z,3.13
2018-11-22T02:07:23.251Z,3.74
2018-11-22T02:10:13.473Z,2.61
2018-11-22T02:13:01.950Z,2.62
2018-11-22T02:15:50.729Z,2.74
2018-11-22T02:18:39.412Z,3.09
2018-11-22T02:21:28.405Z,2.86
2018-11-22T02:24:16.879Z,2.45
2018-11-22T02:27:06.104Z,3.53
2018-11-22T02:29:54.722Z,3.83
2018-11-22T02:32:44.455Z,3.04
2018-11-22T02:35:32.868Z,2.71
2018-11-22T02:38:21.356Z,3.01
2018-11-22T02:41:09.824Z,3.16
2018-11-22T02:43:58.287Z,3.11
2018-11-22T02:46:46.772Z,3.66
2018-11-22T02:49:35.256Z,3.54
2018-11-22T02:52:23.722Z,3.82
2018-11-22T02:55:12.475Z,2.72
2018-11-22T02:58:00.976Z,2.59
2018-11-22T03:00:49.942Z,3.47
2018-11-22T03:03:38.463Z,3.07
2018-11-22T03:06:27.687Z,2.87
2018-11-22T03:09:16.460Z,3.29
2018-11-22T03:12:05.009Z,2.91
2018-11-22T03:14:53.490Z,4.03
2018-11-22T03:17:42.765Z,3.83
2018-11-22T03:20:31.264Z,3.11
2018-11-22T03:23:20.500Z,2.95
2018-11-22T03:26:08.984Z,2.84
2018-11-22T03:28:57.455Z,3.13
2018-11-22T03:31:46.359Z,3.05
2018-11-22T03:34:34.862Z,3.01
2018-11-22T03:37:23.667Z,2.94
2018-11-22T03:40:22.209Z,3.23
2018-11-22T03:43:10.693Z,3.07
2018-11-22T03:45:59.695Z,2.62
2018-11-22T03:48:48.267Z,2.63
2018-11-22T03:51:36.775Z,2.68
2018-11-22T03:54:25.733Z,2.66
2018-11-22T03:57:14.694Z,2.54
2018-11-22T04:00:03.240Z,2.72
2018-11-22T04:02:52.735Z,2.69
2018-11-22T04:05:41.682Z,2.91
2018-11-22T04:08:30.145Z,2.81
2018-11-22T04:11:18.647Z,2.97
2018-11-22T04:14:07.769Z,2.47
2018-11-22T04:16:56.231Z,2.95
2018-11-22T04:19:45.061Z,3.14
2018-11-22T04:22:33.945Z,3.41
2018-11-22T04:25:22.930Z,3.24
2018-11-22T04:28:12.140Z,3.15
2018-11-22T04:31:00.593Z,2.73
2018-11-22T04:33:49.071Z,3.29
2018-11-22T04:36:37.528Z,4.32
2018-11-22T04:39:26.477Z,3.27
2018-11-22T04:42:14.942Z,3.35
2018-11-22T04:45:03.507Z,3.45
2018-11-22T04:47:53.363Z,2.60
2018-11-22T04:50:41.843Z,3.67
2018-11-22T04:53:30.299Z,2.93
2018-11-22T04:56:18.772Z,2.82
2018-11-22T04:59:07.971Z,2.77
2018-11-22T05:01:56.454Z,2.97
2018-11-22T05:04:44.921Z,3.58
2018-11-22T05:07:33.403Z,3.31
2018-11-22T05:10:16.262Z,3.50
2018-11-22T05:13:04.907Z,2.84
2018-11-22T05:15:53.684Z,3.18
2018-11-22T05:18:42.163Z,2.94
2018-11-22T05:21:30.730Z,3.52
2018-11-22T05:24:19.332Z,2.97
2018-11-22T05:27:07.874Z,3.00
2018-11-22T05:29:57.133Z,3.04
2018-11-22T05:32:46.099Z,2.90
2018-11-22T05:35:34.930Z,2.73
2018-11-22T05:38:23.549Z,2.53
2018-11-22T05:41:12.039Z,2.45
2018-11-22T05:44:00.553Z,2.65
2018-11-22T05:46:49.345Z,2.56
2018-11-22T05:49:37.942Z,2.81
2018-11-22T05:52:26.477Z,3.15
2018-11-22T05:55:15.353Z,2.63
2018-11-22T05:58:03.903Z,2.82
2018-11-22T06:00:52.396Z,2.59
2018-11-22T06:03:41.365Z,3.05
2018-11-22T06:06:29.853Z,3.15
2018-11-22T06:09:18.610Z,3.02
2018-11-22T06:12:07.474Z,3.40
2018-11-22T06:15:15.264Z,3.12
2018-11-22T06:18:22.976Z,3.22
2018-11-22T06:21:12.180Z,3.25
2018-11-22T06:24:00.852Z,3.26
2018-11-22T06:26:49.836Z,3.01
2018-11-22T06:29:38.336Z,3.56
2018-11-22T06:32:27.143Z,3.18
2018-11-22T06:35:15.897Z,3.29
2018-11-22T06:38:04.366Z,2.96
2018-11-22T06:40:52.843Z,2.97
2018-11-22T06:43:41.308Z,3.43
2018-11-22T06:46:30.857Z,3.07
2018-11-22T06:49:19.639Z,2.81
2018-11-22T06:52:08.553Z,3.19
2018-11-22T06:54:57.504Z,2.76
2018-11-22T06:57:45.997Z,2.80
2018-11-22T07:03:29.137Z,3.04
2018-11-22T07:06:17.630Z,3.41
2018-11-22T07:09:07.580Z,2.87
2018-11-22T07:11:56.076Z,2.85
2018-11-22T07:14:44.578Z,3.76
2018-11-22T07:17:33.076Z,2.99
2018-11-22T07:20:23.423Z,3.19
2018-11-22T07:23:12.486Z,3.15
2018-11-22T07:26:00.939Z,2.75
2018-11-22T07:28:49.792Z,2.89
2018-11-22T07:31:38.202Z,3.13
2018-11-22T07:34:26.735Z,2.94
2018-11-22T07:37:15.358Z,3.63
2018-11-22T07:40:04.121Z,3.29
2018-11-22T07:42:52.788Z,4.14
2018-11-22T07:45:42.658Z,3.65
2018-11-22T07:48:31.612Z,3.88
2018-11-22T07:51:20.100Z,3.27
2018-11-22T07:54:08.566Z,2.82
2018-11-22T07:56:57.795Z,2.97
2018-11-22T07:59:46.722Z,2.82
2018-11-22T08:02:35.203Z,2.97
2018-11-22T08:05:24.614Z,3.09
2018-11-22T08:08:13.134Z,3.26
2018-11-22T08:11:01.615Z,2.67
2018-11-22T08:13:50.137Z,2.79
2018-11-22T08:16:38.652Z,2.77
2018-11-22T08:19:27.125Z,2.79
2018-11-22T08:22:15.752Z,3.45
2018-11-22T08:25:04.849Z,3.96
2018-11-22T08:27:53.735Z,4.27
2018-11-22T08:30:42.246Z,3.09
2018-11-22T08:33:31.211Z,3.15
2018-11-22T08:36:19.709Z,2.88
2018-11-22T08:39:09.697Z,3.95
2018-11-22T08:44:52.952Z,3.59
2018-11-22T08:47:41.515Z,3.95
2018-11-22T08:50:30.917Z,3.39
2018-11-22T08:53:19.435Z,3.54
2018-11-22T08:56:07.936Z,4.63
2018-11-22T08:58:56.425Z,4.16
2018-11-22T09:01:44.933Z,3.82
2018-11-22T09:07:21.065Z,2.93
2018-11-22T09:10:11.931Z,4.11
2018-11-22T09:13:01.204Z,4.85
2018-11-22T09:15:49.771Z,5.07
2018-11-22T09:18:57.831Z,3.40
2018-11-22T09:21:46.383Z,4.41
2018-11-22T09:24:35.582Z,3.66
2018-11-22T09:27:24.511Z,3.49
2018-11-22T09:30:35.642Z,3.72
2018-11-22T09:33:24.138Z,4.38
2018-11-22T09:36:12.869Z,3.75
2018-11-22T09:38:42.104Z,4.67
2018-11-22T09:41:11.081Z,4.38
2018-11-22T09:43:59.560Z,5.42
2018-11-22T09:46:48.431Z,5.67
2018-11-22T09:49:37.446Z,3.88
2018-11-22T09:52:25.940Z,4.67
2018-11-22T09:55:15.170Z,4.57
2018-11-22T09:58:03.653Z,4.53
2018-11-22T10:00:52.181Z,4.76
2018-11-22T10:03:40.682Z,4.01
2018-11-22T10:06:29.161Z,3.95
2018-11-22T10:09:17.888Z,3.93
2018-11-22T10:12:06.392Z,4.89
2018-11-22T10:15:14.496Z,3.90
2018-11-22T10:18:03.013Z,4.12
2018-11-22T10:20:51.697Z,4.48
2018-11-22T10:23:40.180Z,4.44
2018-11-22T10:26:28.697Z,4.99
2018-11-22T10:29:17.283Z,4.46
2018-11-22T10:32:05.736Z,3.45
2018-11-22T10:34:55.202Z,3.41
2018-11-22T10:37:44.227Z,4.05
2018-11-22T10:40:15.016Z,4.95
2018-11-22T10:45:52.512Z,3.81
2018-11-22T10:48:41.992Z,3.07
2018-11-22T10:51:11.039Z,3.26
2018-11-22T10:53:40.295Z,3.25
2018-11-22T10:56:09.465Z,2.97
2018-11-22T10:58:38.473Z,3.38
2018-11-22T11:04:52.826Z,3.56
2018-11-22T11:07:48.324Z,3.17
2018-11-22T11:10:17.935Z,3.45
2018-11-22T11:12:47.834Z,4.23
2018-11-22T11:15:17.633Z,4.04
2018-11-22T11:18:06.235Z,4.10
2018-11-22T11:20:54.696Z,3.31
2018-11-22T11:23:43.186Z,3.15
2018-11-22T11:26:32.091Z,3.92
2018-11-22T11:29:20.730Z,3.18
2018-11-22T11:32:09.222Z,3.79
2018-11-22T11:34:57.733Z,4.14
2018-11-22T11:37:46.210Z,3.91
2018-11-22T11:40:36.238Z,3.79
2018-11-22T11:43:25.000Z,3.51
2018-11-22T11:46:14.681Z,2.97
2018-11-22T11:48:44.101Z,3.47
2018-11-22T11:51:13.104Z,3.04
2018-11-22T11:53:42.358Z,3.46
2018-11-22T11:56:11.787Z,3.63
2018-11-22T11:59:00.253Z,3.61
2018-11-22T12:01:49.043Z,3.55
2018-11-22T12:04:37.545Z,3.31
2018-11-22T12:07:26.081Z,2.97
2018-11-22T12:10:16.086Z,3.53
2018-11-22T12:13:04.582Z,4.18
2018-11-22T12:15:53.204Z,3.46
2018-11-22T12:18:42.129Z,3.19
2018-11-22T12:21:30.906Z,3.03
2018-11-22T12:24:19.481Z,3.44
2018-11-22T12:27:07.959Z,3.44
2018-11-22T12:29:57.006Z,4.50
2018-11-22T12:33:04.631Z,4.80
2018-11-22T12:36:12.351Z,4.53
2018-11-22T12:39:01.299Z,5.37
2018-11-22T12:41:49.808Z,4.12
2018-11-22T12:44:38.335Z,4.37
2018-11-22T12:47:27.098Z,4.53
2018-11-22T12:50:16.123Z,3.61
2018-11-22T12:53:23.856Z,3.40
2018-11-22T12:56:12.630Z,3.45
2018-11-22T12:59:01.123Z,3.26
2018-11-22T13:01:49.694Z,4.07
2018-11-22T13:04:38.251Z,4.56
2018-11-22T13:07:27.037Z,4.20
2018-11-22T13:10:16.733Z,3.44
2018-11-22T13:13:05.498Z,3.44
2018-11-22T13:15:54.062Z,3.82
2018-11-22T13:18:42.584Z,3.15
2018-11-22T13:21:31.152Z,4.24
2018-11-22T13:24:19.593Z,3.79
2018-11-22T13:27:08.132Z,3.94
2018-11-22T13:29:56.661Z,4.38
2018-11-22T13:35:53.577Z,3.54
2018-11-22T13:38:42.655Z,4.73
2018-11-22T13:41:31.343Z,4.60
2018-11-22T13:44:19.990Z,4.36
2018-11-22T13:47:08.496Z,4.36
2018-11-22T13:49:56.998Z,3.73
2018-11-22T13:52:46.533Z,4.73
2018-11-22T13:55:35.038Z,3.43
2018-11-22T13:58:23.570Z,3.55
2018-11-22T14:01:12.286Z,3.90
2018-11-22T14:04:01.796Z,3.06
2018-11-22T14:06:30.843Z,3.21
2018-11-22T14:09:00.195Z,3.22
2018-11-22T14:11:29.676Z,3.26
2018-11-22T14:13:58.751Z,3.26
2018-11-22T14:16:28.094Z,3.32
2018-11-22T14:19:16.589Z,3.00
2018-11-22T14:22:05.681Z,2.70
2018-11-22T14:24:54.154Z,3.18
2018-11-22T14:27:43.430Z,2.61
2018-11-22T14:30:33.742Z,3.21
2018-11-22T14:33:22.324Z,3.61
2018-11-22T14:36:11.432Z,3.17
2018-11-22T14:38:59.930Z,2.92
2018-11-22T14:41:48.929Z,2.72
2018-11-22T14:44:18.591Z,2.92
2018-11-22T14:46:47.596Z,3.71
2018-11-22T14:49:17.146Z,3.10
2018-11-22T14:52:06.367Z,3.23
2018-11-22T14:54:54.876Z,2.99
2018-11-22T14:57:43.367Z,3.23
2018-11-22T15:00:32.188Z,3.49
2018-11-22T15:03:20.826Z,3.62
2018-11-22T15:05:49.822Z,3.18
2018-11-22T15:08:18.987Z,3.65
2018-11-22T15:10:48.020Z,3.64
2018-11-22T15:13:36.798Z,4.26
2018-11-22T15:16:27.506Z,2.98
2018-11-22T15:19:17.764Z,3.13
2018-11-22T15:22:06.560Z,3.16
2018-11-22T15:24:55.162Z,3.45
2018-11-22T15:27:44.246Z,3.21
2018-11-22T15:30:32.799Z,3.11
2018-11-22T15:33:21.865Z,3.55
2018-11-22T15:36:10.677Z,4.07
2018-11-22T15:38:59.208Z,4.45
2018-11-22T15:41:40.356Z,4.18
2018-11-22T15:44:28.875Z,3.84
2018-11-22T15:47:17.381Z,4.98
2018-11-22T15:50:07.883Z,4.47
2018-11-22T15:52:37.004Z,4.22
2018-11-22T15:55:06.741Z,4.77
2018-11-22T15:57:36.457Z,4.60
2018-11-22T16:00:09.521Z,4.34
2018-11-22T16:02:38.503Z,4.03
2018-11-22T16:05:08.899Z,3.81
2018-11-22T16:07:37.903Z,4.85
2018-11-22T16:10:10.943Z,3.91
2018-11-22T16:12:40.186Z,3.30
2018-11-22T16:15:49.994Z,3.49
2018-11-22T16:18:38.749Z,3.15
2018-11-22T16:21:27.271Z,3.69
2018-11-22T16:24:15.869Z,3.72
2018-11-22T16:27:04.494Z,3.17
2018-11-22T16:29:52.958Z,3.86
2018-11-22T16:32:41.722Z,3.84
2018-11-22T16:35:33.541Z,4.06
2018-11-22T16:38:19.218Z,3.82
2018-11-22T16:41:07.683Z,3.55
2018-11-22T16:43:59.614Z,3.90
2018-11-22T16:47:04.505Z,3.47
2018-11-22T16:49:52.962Z,3.19
2018-11-22T16:52:42.254Z,3.75
2018-11-22T16:55:30.713Z,4.05
2018-11-22T16:58:19.251Z,3.61
2018-11-22T17:01:08.424Z,3.38
2018-11-22T17:03:37.919Z,3.30
2018-11-22T17:06:26.383Z,3.94
2018-11-22T17:09:14.852Z,4.07
2018-11-22T17:12:03.351Z,4.89
2018-11-22T17:14:52.266Z,4.36
2018-11-22T17:17:40.752Z,4.33
2018-11-22T17:20:30.540Z,4.68
2018-11-22T17:23:19.097Z,5.21
2018-11-22T17:26:07.583Z,4.28
2018-11-22T17:28:56.068Z,4.24
2018-11-22T17:31:44.911Z,4.14
2018-11-22T17:34:33.836Z,3.39
2018-11-22T17:37:22.299Z,3.40
2018-11-22T17:40:16.562Z,3.36
2018-11-22T17:43:05.522Z,3.59
2018-11-22T17:45:54.018Z,3.85
2018-11-22T17:48:42.494Z,3.73
2018-11-22T17:51:31.100Z,3.94
2018-11-22T17:54:19.563Z,4.67
2018-11-22T17:57:08.329Z,4.32
2018-11-22T17:59:37.305Z,4.37
2018-11-22T18:02:06.790Z,4.32
2018-11-22T18:04:35.806Z,4.15
2018-11-22T18:07:06.192Z,3.95
2018-11-22T18:09:35.165Z,3.66
2018-11-22T18:12:04.187Z,3.48
2018-11-22T18:14:33.165Z,4.16
2018-11-22T18:17:02.374Z,4.43
2018-11-22T18:19:31.385Z,4.39
2018-11-22T18:22:00.633Z,4.19
2018-11-22T18:24:29.650Z,5.06
2018-11-22T18:26:58.663Z,4.02
2018-11-22T18:29:27.603Z,4.38
2018-11-22T18:31:56.865Z,4.83
2018-11-22T18:34:45.669Z,4.57
2018-11-22T18:37:34.517Z,5.06
2018-11-22T18:40:24.312Z,4.50
2018-11-22T18:43:13.333Z,3.58
2018-11-22T18:46:01.833Z,3.10
2018-11-22T18:48:50.860Z,3.38
2018-11-22T18:51:20.321Z,4.10
2018-11-22T18:53:49.341Z,3.44
2018-11-22T18:56:18.526Z,3.30
2018-11-22T18:58:47.632Z,4.52
2018-11-22T19:01:16.717Z,3.97
2018-11-22T19:03:46.588Z,3.63
2018-11-22T19:06:16.013Z,4.48
2018-11-22T19:08:45.177Z,4.16
2018-11-22T19:11:14.273Z,4.50
2018-11-22T19:13:43.259Z,4.14
2018-11-22T19:16:12.745Z,4.41
2018-11-22T19:18:41.842Z,3.56
2018-11-22T19:21:11.083Z,4.34
2018-11-22T19:23:40.174Z,4.00
2018-11-22T19:26:09.330Z,4.02
2018-11-22T19:28:38.309Z,3.83
2018-11-22T19:31:07.266Z,3.89
2018-11-22T19:33:36.365Z,4.06
2018-11-22T19:36:05.562Z,4.15
2018-11-22T19:38:34.837Z,4.39
2018-11-22T19:41:04.237Z,4.50
2018-11-22T19:43:33.247Z,4.17
2018-11-22T19:46:02.314Z,4.87
2018-11-22T19:48:32.763Z,4.21
2018-11-22T19:51:05.609Z,3.92
2018-11-22T19:53:30.508Z,3.07
2018-11-22T19:55:59.466Z,3.45
2018-11-22T19:58:28.505Z,3.10
2018-11-22T20:00:57.463Z,2.58
2018-11-22T20:03:26.872Z,3.31
2018-11-22T20:05:55.870Z,3.68
2018-11-22T20:08:24.872Z,4.19
2018-11-22T20:10:54.201Z,4.53
2018-11-22T20:13:23.469Z,4.70
2018-11-22T20:15:52.853Z,3.83
2018-11-22T20:18:22.183Z,4.36
2018-11-22T20:20:51.561Z,4.53
2018-11-22T20:23:21.848Z,4.04
2018-11-22T20:25:49.825Z,4.27
2018-11-22T20:28:18.797Z,4.32
2018-11-22T20:30:48.204Z,4.71
2018-11-22T20:33:17.178Z,5.26
2018-11-22T20:35:46.315Z,4.93
2018-11-22T20:38:15.331Z,5.30
2018-11-22T20:43:58.260Z,4.95
2018-11-22T20:46:46.766Z,5.27
2018-11-22T20:49:35.268Z,4.98
2018-11-22T20:52:23.771Z,4.91
2018-11-22T20:55:15.390Z,4.97
2018-11-22T20:58:05.227Z,4.35
2018-11-22T21:00:54.287Z,3.34
2018-11-22T21:03:42.825Z,4.39
2018-11-22T21:06:31.293Z,4.23
2018-11-22T21:09:19.836Z,4.48
2018-11-22T21:12:08.362Z,3.94
2018-11-22T21:15:17.479Z,4.00
2018-11-22T21:17:47.933Z,4.19
2018-11-22T21:20:20.396Z,4.52
2018-11-22T21:23:10.611Z,4.52
2018-11-22T21:25:59.943Z,4.88
2018-11-22T21:28:49.502Z,4.39
2018-11-22T21:31:38.011Z,3.73
2018-11-22T21:34:27.300Z,3.65
2018-11-22T21:37:16.943Z,2.73
2018-11-22T21:40:06.404Z,3.27
2018-11-22T21:42:55.583Z,3.26
2018-11-22T21:45:26.203Z,3.99
2018-11-22T21:47:55.397Z,4.13
2018-11-22T21:50:44.988Z,4.68
2018-11-22T21:53:14.039Z,4.49
2018-11-22T21:55:43.289Z,4.32
2018-11-22T21:58:32.683Z,3.30
2018-11-22T22:01:22.164Z,3.40
2018-11-22T22:04:30.380Z,3.80
2018-11-22T22:07:38.634Z,3.48
2018-11-22T22:10:28.073Z,2.87
2018-11-22T22:12:59.328Z,3.07
2018-11-22T22:15:29.566Z,3.51
2018-11-22T22:17:59.489Z,4.12
2018-11-22T22:20:30.075Z,4.22
2018-11-22T22:22:59.799Z,4.29
2018-11-22T22:25:29.546Z,3.78
2018-11-22T22:28:02.010Z,4.80
2018-11-22T22:30:33.130Z,4.50
2018-11-22T22:33:06.655Z,5.26
2018-11-22T22:35:36.894Z,5.40
2018-11-22T22:38:08.710Z,5.43
2018-11-22T22:40:38.332Z,4.91
2018-11-22T22:43:07.990Z,4.48
2018-11-22T22:45:36.943Z,4.90
2018-11-22T22:48:05.976Z,5.25
2018-11-22T22:50:35.297Z,5.31
2018-11-22T22:53:04.538Z,5.42
2018-11-22T22:55:33.746Z,5.44
2018-11-22T22:58:02.795Z,5.58
2018-11-22T23:00:50.730Z,5.54
2018-11-22T23:03:19.786Z,5.55
2018-11-22T23:05:48.996Z,4.83
2018-11-22T23:08:18.019Z,5.15
2018-11-22T23:10:47.076Z,5.42
2018-11-22T23:13:16.226Z,4.56
2018-11-22T23:15:45.374Z,5.46
2018-11-22T23:18:15.205Z,5.38
2018-11-22T23:20:44.148Z,5.37
2018-11-22T23:23:13.430Z,5.44
2018-11-22T23:25:42.466Z,5.43
2018-11-22T23:28:11.502Z,5.60
2018-11-22T23:30:40.550Z,5.55
2018-11-22T23:33:10.215Z,5.61
2018-11-22T23:35:39.391Z,5.39
2018-11-22T23:38:08.530Z,4.76
2018-11-22T23:40:37.805Z,4.58
2018-11-22T23:43:06.921Z,3.80
2018-11-22T23:45:35.977Z,3.16
2018-11-22T23:48:09.807Z,3.52
2018-11-22T23:50:41.298Z,4.04
2018-11-22T23:53:10.583Z,4.99
2018-11-22T23:55:40.103Z,5.28
2018-11-22T23:58:09.076Z,5.09
